Boynton Beach, FL (33435)

10:17 AM EDT on September 21, 2014 (GMT -0400)
Forest Park | Change Station
CLOSE
Current Station
Personal Weather Station
Location: Boynton Beach, FL
Elevation: 15 ft
Nearby Weather Stations

Elev 15 ft 26.52 °N, 80.07 °W | Updated 0 second ago

Mostly Cloudy
Mostly Cloudy
82.9 °F
Feels Like 91 °F
N
0.0
Wind Variable Wind from South
Gusts 0.0 mph

Today
High -- | Low -- °F
--% Chance of Precip.
Yesterday
High -- | Low -- °F
Precip. -- in
7:08 AM 7:17 PM
Waning Crescent, 6% visible
Pressure 30.01 in
Visibility 10.0 miles
Clouds Few 2800 ft
Mostly Cloudy 17000 ft
Mostly Cloudy 24000 ft
Heat Index 91 °F
Dew Point 76 °F
Humidity 81%
Rainfall 0.00 in
Snow Depth Not available.
UV 3 out of 12
Pollen 4.30 out of 12
Ozone Good
PM2.5 Good
Flu Activity Not available.
METAR KPBI 211353Z 26004KT 10SM FEW028 BKN170 BKN240 26/23 A3001 RMK AO2 SLP161 T02610233 $

More Conditions Fewer Conditions

Pressure 30.01 in
Visibility 10.0 miles
Clouds Few 2800 ft
Mostly Cloudy 17000 ft
Mostly Cloudy 24000 ft
Heat Index 91 °F
Dew Point 76 °F
Humidity 81%
Rainfall 0.00 in
Snow Depth Not available.
UV 3 out of 12
Pollen 4.30 out of 12
Ozone Good
PM2.5 Good
Flu Activity Not available.
METAR KPBI 211353Z 26004KT 10SM FEW028 BKN170 BKN240 26/23 A3001 RMK AO2 SLP161 T02610233 $

More Conditions Fewer Conditions

10-Day Weather Forecast

Almanac

Astronomy

Sep. 21, 2014 Rise Set
Actual Time 7:08 AM EDT 7:17 PM EDT
Civil Twilight 6:45 AM EDT 7:40 PM EDT
Nautical Twilight 6:18 AM EDT 8:07 PM EDT
Astronomical Twilight 5:51 AM EDT 8:34 PM EDT
Moon 4:51 AM EDT 5:44 PM EDT
Length of Visible Light 12h 55m
Length of Day
12h 09m
Tomorrow will be 1m 33s shorter.
Waning Crescent, 6% of the Moon is Illuminated
Today
Waning Crescent
Sep 24
New
Oct 1
First Quarter
Oct 8
Full
Oct 15
Last Quarter

Today's Extremes

State Highs State Lows

Community

WunderPhotos

Upload Photos

1,755,147 photos uploaded!

Nearby

Air Quality

  Air Quality AQ Index Pollutant
Yesterday Good
PM2.5
Yesterday Good
OZONE
Current Good
PM2.5
Current Good
OZONE
Sunday Good
OZONE
Sunday Good
PM2.5
Monday Good
OZONE
Monday Good
PM2.5

Snow Depth

Station Depth Elevation
No new snow has been reported.

Earthquake Activity

City Distance Mag. Time & Date
No recent earthquake activity has been reported nearby.
Minimum magnitude displayed is 2.5.

Coastal Water Temperatures

Place Temperature
Lake Worth, FL 84.9 °F
Virginia Key, FL 84.0 °F

Nearby Weather Stations